createdAt,value
2019-03-29T00:01:54.302Z,59.12
2019-03-29T00:07:39.535Z,59.25
2019-03-29T00:12:54.628Z,59.16
2019-03-29T00:18:19.476Z,59.20
2019-03-29T00:23:50.487Z,59.31
2019-03-29T00:29:03.066Z,59.45
2019-03-29T00:34:17.377Z,59.61
2019-03-29T00:39:32.477Z,59.78
2019-03-29T00:45:05.443Z,59.39
2019-03-29T00:50:22.320Z,59.70
2019-03-29T00:56:01.499Z,59.63
2019-03-29T01:01:18.349Z,59.44
2019-03-29T01:06:42.744Z,59.65
2019-03-29T01:12:05.267Z,60.12
2019-03-29T01:17:15.420Z,60.99
2019-03-29T01:22:31.337Z,62.10
2019-03-29T01:34:02.796Z,62.86
2019-03-29T01:39:17.446Z,62.74
2019-03-29T01:44:35.617Z,62.33
2019-03-29T01:49:53.798Z,61.57
2019-03-29T01:55:10.779Z,62.00
2019-03-29T02:00:36.122Z,61.63
2019-03-29T02:05:56.099Z,61.41
2019-03-29T02:11:14.918Z,61.35
2019-03-29T02:16:39.103Z,61.58
2019-03-29T02:21:56.283Z,62.05
2019-03-29T02:27:21.874Z,63.02
2019-03-29T02:32:30.498Z,62.80
2019-03-29T02:37:42.855Z,62.40
2019-03-29T02:42:57.362Z,62.46
2019-03-29T02:48:13.702Z,63.51
2019-03-29T02:53:30.961Z,63.06
2019-03-29T02:58:52.010Z,62.62
2019-03-29T03:04:14.075Z,63.66
2019-03-29T03:09:34.961Z,62.50
2019-03-29T03:14:52.007Z,62.22
2019-03-29T03:20:08.931Z,62.70
2019-03-29T03:25:21.072Z,63.14
2019-03-29T03:30:38.459Z,63.12
2019-03-29T03:36:01.539Z,63.24
2019-03-29T03:41:14.688Z,63.32
2019-03-29T03:52:08.096Z,63.55
2019-03-29T03:57:28.130Z,63.24
2019-03-29T04:02:48.067Z,63.81
2019-03-29T04:08:05.893Z,63.62
2019-03-29T04:13:20.832Z,64.27
2019-03-29T04:18:31.825Z,63.50
2019-03-29T04:23:53.859Z,64.24
2019-03-29T04:29:10.569Z,64.51
2019-03-29T04:34:20.703Z,64.16
2019-03-29T04:40:06.479Z,64.72
2019-03-29T04:45:10.137Z,64.71
2019-03-29T04:50:26.844Z,65.10
2019-03-29T04:55:44.132Z,65.49
2019-03-29T05:00:59.537Z,65.75
2019-03-29T05:06:09.929Z,65.38
2019-03-29T05:11:26.557Z,64.88
2019-03-29T05:16:39.209Z,65.18
2019-03-29T05:21:52.275Z,65.12
2019-03-29T05:27:08.881Z,65.60
2019-03-29T05:32:26.445Z,65.72
2019-03-29T05:37:39.832Z,65.49
2019-03-29T05:43:00.545Z,64.98
2019-03-29T05:48:21.152Z,64.71
2019-03-29T05:53:36.234Z,64.36
2019-03-29T05:59:07.689Z,64.71
2019-03-29T06:04:24.074Z,64.86
2019-03-29T06:09:45.562Z,65.23
2019-03-29T06:14:59.438Z,65.27
2019-03-29T06:20:10.003Z,65.37
2019-03-29T06:25:22.972Z,65.25
2019-03-29T06:30:35.882Z,65.61
2019-03-29T06:35:49.285Z,66.18
2019-03-29T06:41:03.995Z,66.19
2019-03-29T06:46:14.297Z,65.75
2019-03-29T06:51:34.889Z,65.28
2019-03-29T06:56:47.172Z,65.24
2019-03-29T07:02:01.748Z,65.35
2019-03-29T07:07:21.905Z,65.56
2019-03-29T07:12:56.745Z,65.16
2019-03-29T07:18:28.857Z,65.21
2019-03-29T07:30:14.925Z,64.30
2019-03-29T07:36:09.842Z,62.88
2019-03-29T07:41:32.211Z,62.56
2019-03-29T07:46:55.240Z,60.78
2019-03-29T07:52:30.217Z,61.25
2019-03-29T07:57:45.152Z,60.94
2019-03-29T08:03:00.323Z,59.73
2019-03-29T08:08:49.746Z,58.91
2019-03-29T08:13:59.487Z,57.58
2019-03-29T08:19:13.349Z,58.14
2019-03-29T08:24:29.465Z,57.71
2019-03-29T08:29:52.875Z,55.93
2019-03-29T08:35:05.162Z,55.56
2019-03-29T08:40:19.634Z,54.75
2019-03-29T08:45:38.336Z,54.35
2019-03-29T08:51:00.451Z,54.35
2019-03-29T08:56:09.000Z,54.34
2019-03-29T09:01:19.816Z,53.51
2019-03-29T09:06:33.396Z,53.44
2019-03-29T09:11:49.826Z,52.19
2019-03-29T09:17:06.697Z,51.88
2019-03-29T09:22:22.501Z,51.11
2019-03-29T09:27:57.512Z,50.09
2019-03-29T09:33:12.676Z,49.74
2019-03-29T09:43:59.748Z,47.34
2019-03-29T09:49:08.498Z,47.11
2019-03-29T09:54:20.576Z,46.86
2019-03-29T09:59:39.656Z,44.63
2019-03-29T10:04:52.569Z,42.85
2019-03-29T10:10:06.785Z,39.60
2019-03-29T10:15:43.748Z,39.32
2019-03-29T10:21:20.284Z,37.38
2019-03-29T10:26:35.512Z,34.43
2019-03-29T10:32:09.452Z,32.89
2019-03-29T10:37:27.990Z,31.92
2019-03-29T10:42:58.110Z,31.40
2019-03-29T10:48:12.027Z,31.40
2019-03-29T10:53:28.579Z,29.69
2019-03-29T10:58:37.326Z,31.06
2019-03-29T11:03:54.568Z,30.03
2019-03-29T11:09:09.260Z,27.49
2019-03-29T11:14:43.429Z,27.49
2019-03-29T11:20:08.904Z,27.12
2019-03-29T11:25:23.532Z,27.85
2019-03-29T11:30:58.260Z,27.29
2019-03-29T11:36:16.509Z,26.37
2019-03-29T11:41:25.182Z,28.40
2019-03-29T11:46:41.171Z,28.48
2019-03-29T11:51:55.203Z,27.58
2019-03-29T11:57:08.934Z,26.04
2019-03-29T12:02:32.124Z,24.89
2019-03-29T12:07:48.123Z,25.56
2019-03-29T12:13:22.426Z,24.62
2019-03-29T12:19:03.182Z,24.36
2019-03-29T12:24:15.345Z,26.01
2019-03-29T12:29:36.741Z,25.27
2019-03-29T12:34:59.319Z,24.56
2019-03-29T12:40:11.685Z,24.18
2019-03-29T12:45:22.307Z,23.79
2019-03-29T12:50:40.743Z,22.69
2019-03-29T12:55:56.670Z,24.16
2019-03-29T13:01:21.039Z,25.05
2019-03-29T13:06:33.124Z,24.21
2019-03-29T13:11:50.841Z,24.80
2019-03-29T13:17:05.153Z,23.07
2019-03-29T13:22:38.895Z,21.87
2019-03-29T13:27:59.501Z,22.31
2019-03-29T13:33:14.840Z,22.67
2019-03-29T13:38:47.854Z,21.31
2019-03-29T13:44:22.979Z,22.77
2019-03-29T13:49:24.412Z,21.68
2019-03-29T13:54:36.880Z,21.83
2019-03-29T14:00:04.258Z,21.93
2019-03-29T14:05:15.962Z,20.96
2019-03-29T14:10:48.421Z,21.93
2019-03-29T14:16:05.277Z,20.89
2019-03-29T14:21:43.055Z,21.69
2019-03-29T14:26:57.411Z,20.76
2019-03-29T14:32:16.435Z,22.59
2019-03-29T14:37:50.574Z,22.90
2019-03-29T14:43:00.875Z,22.08
2019-03-29T14:48:18.534Z,21.34
2019-03-29T14:53:34.372Z,21.81
2019-03-29T14:59:01.609Z,23.48
2019-03-29T15:04:13.189Z,21.92
2019-03-29T15:09:23.396Z,23.18
2019-03-29T15:14:42.642Z,24.74
2019-03-29T15:20:04.003Z,25.80
2019-03-29T15:25:21.834Z,27.02
2019-03-29T15:30:34.972Z,28.22
2019-03-29T15:35:49.084Z,29.28
2019-03-29T15:40:58.980Z,29.45
2019-03-29T15:46:11.534Z,30.07
2019-03-29T15:51:29.205Z,31.38
2019-03-29T15:56:39.697Z,31.15
2019-03-29T16:01:52.717Z,31.47
2019-03-29T16:07:06.242Z,32.69
2019-03-29T16:12:30.828Z,32.24
2019-03-29T16:17:47.632Z,32.92
2019-03-29T16:23:07.456Z,32.85
2019-03-29T16:28:30.311Z,34.08
2019-03-29T16:33:49.417Z,33.89
2019-03-29T16:39:08.947Z,34.58
2019-03-29T16:44:29.185Z,34.51
2019-03-29T16:49:42.637Z,34.65
2019-03-29T16:55:12.259Z,34.71
2019-03-29T17:00:20.235Z,34.66
2019-03-29T17:05:33.826Z,34.49
2019-03-29T17:11:15.678Z,35.30
2019-03-29T17:16:47.380Z,35.70
2019-03-29T17:22:02.564Z,35.72
2019-03-29T17:27:23.715Z,35.74
2019-03-29T17:32:44.397Z,35.70
2019-03-29T17:38:09.991Z,36.57
2019-03-29T17:43:30.921Z,37.10
2019-03-29T17:49:07.103Z,36.97
2019-03-29T17:54:27.695Z,36.96
2019-03-29T17:59:41.841Z,37.52
2019-03-29T18:04:56.235Z,37.21
2019-03-29T18:10:12.961Z,37.63
2019-03-29T18:15:27.206Z,37.89
2019-03-29T18:20:41.552Z,38.39
2019-03-29T18:25:57.074Z,38.59
2019-03-29T18:31:09.908Z,38.99
2019-03-29T18:36:29.217Z,39.42
2019-03-29T18:41:49.969Z,39.60
2019-03-29T18:47:06.029Z,40.09
2019-03-29T18:52:21.828Z,40.60
2019-03-29T18:57:50.792Z,41.12
2019-03-29T19:03:07.205Z,41.02
2019-03-29T19:08:22.051Z,41.71
2019-03-29T19:13:36.796Z,42.46
2019-03-29T19:19:09.935Z,42.70
2019-03-29T19:24:16.260Z,42.86
2019-03-29T19:29:32.917Z,43.06
2019-03-29T19:34:47.251Z,43.03
2019-03-29T19:40:18.109Z,43.53
2019-03-29T19:45:35.526Z,44.02
2019-03-29T19:51:09.449Z,44.46
2019-03-29T19:56:36.437Z,44.85
2019-03-29T20:01:51.205Z,45.24
2019-03-29T20:07:12.197Z,45.62
2019-03-29T20:12:25.374Z,45.28
2019-03-29T20:23:18.931Z,45.52
2019-03-29T20:28:45.783Z,46.07
2019-03-29T20:34:03.698Z,46.78
2019-03-29T20:39:15.499Z,46.80
2019-03-29T20:44:50.233Z,47.11
2019-03-29T20:50:06.713Z,46.62
2019-03-29T20:55:24.493Z,46.47
2019-03-29T21:00:57.414Z,46.80
2019-03-29T21:06:09.907Z,46.95
2019-03-29T21:11:27.686Z,47.09
2019-03-29T21:16:47.459Z,47.90
2019-03-29T21:22:02.838Z,48.60
2019-03-29T21:27:18.275Z,48.17
2019-03-29T21:32:34.758Z,48.88
2019-03-29T21:38:01.267Z,49.18
2019-03-29T21:43:17.909Z,49.37
2019-03-29T21:48:37.254Z,50.08
2019-03-29T21:53:48.431Z,50.28
2019-03-29T21:59:09.275Z,50.24
2019-03-29T22:04:23.630Z,49.61
2019-03-29T22:09:42.602Z,49.54
2019-03-29T22:14:52.303Z,49.47
2019-03-29T22:20:11.444Z,49.46
2019-03-29T22:25:34.186Z,49.56
2019-03-29T22:30:54.979Z,49.96
2019-03-29T22:36:15.096Z,50.02
2019-03-29T22:41:45.669Z,50.90
2019-03-29T22:46:58.235Z,50.88
2019-03-29T22:52:15.238Z,50.53
2019-03-29T22:57:42.527Z,52.07
2019-03-29T23:03:00.291Z,51.81
2019-03-29T23:08:13.349Z,51.38
2019-03-29T23:13:26.758Z,51.66
2019-03-29T23:19:15.499Z,51.63
2019-03-29T23:24:31.780Z,51.62
2019-03-29T23:29:44.345Z,52.05
2019-03-29T23:34:59.837Z,52.23
2019-03-29T23:40:17.416Z,52.37
2019-03-29T23:45:33.539Z,52.18
2019-03-29T23:50:52.288Z,52.27
2019-03-29T23:56:08.387Z,52.29
